sensor_id;sensor_type;location;lat;lon;timestamp;pressure;altitude;pressure_sealevel;temperature;humidity
72896;BME280;61036;53.224;6.554;2023-03-31T00:01:59;100257.09;;;10.34;100.00
72896;BME280;61036;53.224;6.554;2023-03-31T00:04:26;100251.97;;;10.30;100.00
72896;BME280;61036;53.224;6.554;2023-03-31T00:06:52;100252.31;;;10.37;100.00
72896;BME280;61036;53.224;6.554;2023-03-31T00:09:19;100254.75;;;10.40;100.00
72896;BME280;61036;53.224;6.554;2023-03-31T00:11:47;100239.59;;;10.60;100.00
72896;BME280;61036;53.224;6.554;2023-03-31T00:14:14;100234.69;;;10.65;100.00
72896;BME280;61036;53.224;6.554;2023-03-31T00:16:42;100227.28;;;10.67;100.00
72896;BME280;61036;53.224;6.554;2023-03-31T00:19:09;100225.91;;;10.73;100.00
72896;BME280;61036;53.224;6.554;2023-03-31T00:21:46;100212.31;;;10.74;100.00
72896;BME280;61036;53.224;6.554;2023-03-31T00:24:13;100210.06;;;10.59;100.00
72896;BME280;61036;53.224;6.554;2023-03-31T00:26:39;100208.03;;;10.51;100.00
72896;BME280;61036;53.224;6.554;2023-03-31T00:29:06;100202.91;;;10.69;100.00
72896;BME280;61036;53.224;6.554;2023-03-31T00:31:32;100198.50;;;10.47;100.00
72896;BME280;61036;53.224;6.554;2023-03-31T00:33:58;100185.06;;;10.36;100.00
72896;BME280;61036;53.224;6.554;2023-03-31T00:36:25;100186.19;;;10.54;100.00
72896;BME280;61036;53.224;6.554;2023-03-31T00:38:55;100176.72;;;10.60;100.00
72896;BME280;61036;53.224;6.554;2023-03-31T00:41:26;100174.09;;;10.48;100.00
72896;BME280;61036;53.224;6.554;2023-03-31T00:46:54;100161.19;;;10.52;100.00
72896;BME280;61036;53.224;6.554;2023-03-31T00:49:37;100158.44;;;10.42;100.00
72896;BME280;61036;53.224;6.554;2023-03-31T00:55:06;100159.22;;;10.33;100.00
72896;BME280;61036;53.224;6.554;2023-03-31T00:57:35;100151.88;;;10.24;100.00
72896;BME280;61036;53.224;6.554;2023-03-31T01:00:07;100141.13;;;10.24;100.00
72896;BME280;61036;53.224;6.554;2023-03-31T01:02:38;100145.09;;;10.08;100.00
72896;BME280;61036;53.224;6.554;2023-03-31T01:05:07;100135.50;;;10.16;100.00
72896;BME280;61036;53.224;6.554;2023-03-31T01:07:44;100124.72;;;10.16;100.00
72896;BME280;61036;53.224;6.554;2023-03-31T01:10:12;100135.44;;;10.06;100.00
72896;BME280;61036;53.224;6.554;2023-03-31T01:12:40;100125.78;;;10.03;100.00
72896;BME280;61036;53.224;6.554;2023-03-31T01:15:08;100124.78;;;10.04;100.00
72896;BME280;61036;53.224;6.554;2023-03-31T01:17:34;100114.91;;;9.94;100.00
72896;BME280;61036;53.224;6.554;2023-03-31T01:29:03;100106.06;;;10.03;100.00
72896;BME280;61036;53.224;6.554;2023-03-31T01:43:09;100093.59;;;10.02;100.00
72896;BME280;61036;53.224;6.554;2023-03-31T01:46:06;100087.59;;;9.98;100.00
72896;BME280;61036;53.224;6.554;2023-03-31T01:48:58;100078.44;;;9.90;100.00
72896;BME280;61036;53.224;6.554;2023-03-31T01:51:28;100064.91;;;9.80;100.00
72896;BME280;61036;53.224;6.554;2023-03-31T01:54:20;100063.50;;;9.97;100.00
72896;BME280;61036;53.224;6.554;2023-03-31T01:56:51;100069.22;;;9.71;100.00
72896;BME280;61036;53.224;6.554;2023-03-31T01:59:24;100066.97;;;9.88;100.00
72896;BME280;61036;53.224;6.554;2023-03-31T02:02:06;100061.16;;;9.92;100.00
72896;BME280;61036;53.224;6.554;2023-03-31T02:04:48;100068.44;;;9.80;100.00
72896;BME280;61036;53.224;6.554;2023-03-31T02:07:19;100061.34;;;9.79;100.00
72896;BME280;61036;53.224;6.554;2023-03-31T02:09:55;100056.19;;;9.88;100.00
72896;BME280;61036;53.224;6.554;2023-03-31T02:12:24;100052.53;;;9.77;100.00
72896;BME280;61036;53.224;6.554;2023-03-31T02:14:53;100045.00;;;9.71;100.00
72896;BME280;61036;53.224;6.554;2023-03-31T02:17:23;100038.97;;;9.79;100.00
72896;BME280;61036;53.224;6.554;2023-03-31T02:19:58;100040.94;;;9.77;100.00
72896;BME280;61036;53.224;6.554;2023-03-31T02:22:29;100040.28;;;9.84;100.00
72896;BME280;61036;53.224;6.554;2023-03-31T02:24:57;100028.38;;;9.66;100.00
72896;BME280;61036;53.224;6.554;2023-03-31T02:27:34;100034.31;;;9.81;100.00
72896;BME280;61036;53.224;6.554;2023-03-31T02:30:03;100029.91;;;9.80;100.00
72896;BME280;61036;53.224;6.554;2023-03-31T02:32:40;100018.16;;;9.81;100.00
72896;BME280;61036;53.224;6.554;2023-03-31T02:35:13;100025.47;;;9.90;100.00
72896;BME280;61036;53.224;6.554;2023-03-31T02:37:40;100015.38;;;9.71;100.00
72896;BME280;61036;53.224;6.554;2023-03-31T02:40:10;100010.78;;;9.83;100.00
72896;BME280;61036;53.224;6.554;2023-03-31T02:42:38;100010.09;;;9.81;100.00
72896;BME280;61036;53.224;6.554;2023-03-31T02:45:34;100005.03;;;9.88;100.00
72896;BME280;61036;53.224;6.554;2023-03-31T02:47:53;99997.75;;;9.99;100.00
72896;BME280;61036;53.224;6.554;2023-03-31T02:50:23;99994.09;;;10.10;100.00
72896;BME280;61036;53.224;6.554;2023-03-31T02:53:03;99986.59;;;10.14;100.00
72896;BME280;61036;53.224;6.554;2023-03-31T02:55:46;99982.75;;;10.06;100.00
72896;BME280;61036;53.224;6.554;2023-03-31T03:01:06;99975.25;;;10.10;100.00
72896;BME280;61036;53.224;6.554;2023-03-31T03:06:48;99961.69;;;10.21;100.00
72896;BME280;61036;53.224;6.554;2023-03-31T03:09:26;99949.69;;;10.04;100.00
72896;BME280;61036;53.224;6.554;2023-03-31T03:15:14;99938.34;;;10.01;100.00
72896;BME280;61036;53.224;6.554;2023-03-31T03:17:46;99935.13;;;10.17;100.00
72896;BME280;61036;53.224;6.554;2023-03-31T03:20:14;99926.47;;;10.13;100.00
72896;BME280;61036;53.224;6.554;2023-03-31T03:22:41;99913.75;;;10.15;100.00
72896;BME280;61036;53.224;6.554;2023-03-31T03:25:10;99917.28;;;10.16;100.00
72896;BME280;61036;53.224;6.554;2023-03-31T03:27:36;99913.47;;;10.18;100.00
72896;BME280;61036;53.224;6.554;2023-03-31T03:30:04;99908.91;;;10.09;100.00
72896;BME280;61036;53.224;6.554;2023-03-31T03:32:30;99899.53;;;10.13;100.00
72896;BME280;61036;53.224;6.554;2023-03-31T03:34:59;99896.84;;;10.13;100.00
72896;BME280;61036;53.224;6.554;2023-03-31T03:37:24;99893.56;;;10.10;100.00
72896;BME280;61036;53.224;6.554;2023-03-31T03:39:50;99873.59;;;10.12;100.00
72896;BME280;61036;53.224;6.554;2023-03-31T03:42:15;99879.63;;;9.95;100.00
72896;BME280;61036;53.224;6.554;2023-03-31T03:44:41;99876.97;;;10.04;100.00
72896;BME280;61036;53.224;6.554;2023-03-31T03:47:06;99862.91;;;10.01;100.00
72896;BME280;61036;53.224;6.554;2023-03-31T03:49:32;99864.94;;;10.08;100.00
72896;BME280;61036;53.224;6.554;2023-03-31T03:51:58;99855.13;;;10.07;100.00
72896;BME280;61036;53.224;6.554;2023-03-31T03:54:24;99854.47;;;10.15;100.00
72896;BME280;61036;53.224;6.554;2023-03-31T03:56:49;99851.28;;;10.00;100.00
72896;BME280;61036;53.224;6.554;2023-03-31T03:59:15;99843.13;;;10.12;100.00
72896;BME280;61036;53.224;6.554;2023-03-31T04:01:41;99839.88;;;10.18;100.00
72896;BME280;61036;53.224;6.554;2023-03-31T04:04:06;99834.06;;;10.22;100.00
72896;BME280;61036;53.224;6.554;2023-03-31T04:06:32;99830.41;;;10.23;100.00
72896;BME280;61036;53.224;6.554;2023-03-31T04:08:58;99829.41;;;10.24;100.00
72896;BME280;61036;53.224;6.554;2023-03-31T04:11:24;99821.59;;;10.21;100.00
72896;BME280;61036;53.224;6.554;2023-03-31T04:13:50;99814.00;;;10.26;100.00
72896;BME280;61036;53.224;6.554;2023-03-31T04:16:16;99812.22;;;10.25;100.00
72896;BME280;61036;53.224;6.554;2023-03-31T04:18:42;99813.78;;;10.18;100.00
72896;BME280;61036;53.224;6.554;2023-03-31T04:21:09;99806.28;;;10.22;100.00
72896;BME280;61036;53.224;6.554;2023-03-31T04:23:38;99805.31;;;10.23;100.00
72896;BME280;61036;53.224;6.554;2023-03-31T04:26:14;99803.91;;;10.28;100.00
72896;BME280;61036;53.224;6.554;2023-03-31T04:28:40;99798.91;;;10.24;100.00
72896;BME280;61036;53.224;6.554;2023-03-31T04:31:08;99798.38;;;10.30;100.00
72896;BME280;61036;53.224;6.554;2023-03-31T04:33:34;99794.25;;;10.26;100.00
72896;BME280;61036;53.224;6.554;2023-03-31T04:36:06;99786.75;;;10.29;100.00
72896;BME280;61036;53.224;6.554;2023-03-31T04:38:45;99780.78;;;10.26;100.00
72896;BME280;61036;53.224;6.554;2023-03-31T04:41:14;99783.75;;;10.23;100.00
72896;BME280;61036;53.224;6.554;2023-03-31T04:43:40;99775.75;;;10.02;100.00
72896;BME280;61036;53.224;6.554;2023-03-31T04:46:06;99762.97;;;10.04;100.00
72896;BME280;61036;53.224;6.554;2023-03-31T04:48:32;99763.81;;;9.95;100.00
72896;BME280;61036;53.224;6.554;2023-03-31T04:50:58;99769.84;;;10.18;100.00
72896;BME280;61036;53.224;6.554;2023-03-31T04:53:23;99761.75;;;10.08;100.00
72896;BME280;61036;53.224;6.554;2023-03-31T04:55:50;99758.16;;;10.07;100.00
72896;BME280;61036;53.224;6.554;2023-03-31T04:58:19;99754.81;;;10.25;100.00
72896;BME280;61036;53.224;6.554;2023-03-31T05:00:45;99749.97;;;10.19;100.00
72896;BME280;61036;53.224;6.554;2023-03-31T05:03:11;99748.84;;;10.12;100.00
72896;BME280;61036;53.224;6.554;2023-03-31T05:05:36;99742.44;;;10.03;100.00
72896;BME280;61036;53.224;6.554;2023-03-31T05:08:03;99743.75;;;10.18;100.00
72896;BME280;61036;53.224;6.554;2023-03-31T05:10:30;99743.44;;;10.12;100.00
72896;BME280;61036;53.224;6.554;2023-03-31T05:12:56;99734.53;;;10.11;100.00
72896;BME280;61036;53.224;6.554;2023-03-31T05:15:22;99732.94;;;10.08;100.00
72896;BME280;61036;53.224;6.554;2023-03-31T05:17:51;99718.94;;;10.15;100.00
72896;BME280;61036;53.224;6.554;2023-03-31T05:20:18;99722.91;;;10.20;100.00
72896;BME280;61036;53.224;6.554;2023-03-31T05:22:44;99718.28;;;10.32;100.00
72896;BME280;61036;53.224;6.554;2023-03-31T05:25:11;99710.19;;;10.32;100.00
72896;BME280;61036;53.224;6.554;2023-03-31T05:27:44;99712.28;;;10.28;100.00
72896;BME280;61036;53.224;6.554;2023-03-31T05:30:11;99708.91;;;10.36;100.00
72896;BME280;61036;53.224;6.554;2023-03-31T05:32:36;99707.94;;;10.47;100.00
72896;BME280;61036;53.224;6.554;2023-03-31T05:35:02;99701.09;;;10.43;100.00
72896;BME280;61036;53.224;6.554;2023-03-31T05:37:28;99695.28;;;10.38;100.00
72896;BME280;61036;53.224;6.554;2023-03-31T05:39:53;99701.25;;;10.41;100.00
72896;BME280;61036;53.224;6.554;2023-03-31T05:42:19;99681.09;;;10.45;100.00
72896;BME280;61036;53.224;6.554;2023-03-31T05:44:45;99685.47;;;10.46;100.00
72896;BME280;61036;53.224;6.554;2023-03-31T05:47:11;99678.84;;;10.50;100.00
72896;BME280;61036;53.224;6.554;2023-03-31T05:49:37;99672.03;;;10.56;100.00
72896;BME280;61036;53.224;6.554;2023-03-31T05:52:04;99669.47;;;10.55;100.00
72896;BME280;61036;53.224;6.554;2023-03-31T05:54:31;99675.28;;;10.60;100.00
72896;BME280;61036;53.224;6.554;2023-03-31T05:56:56;99667.88;;;10.52;100.00
72896;BME280;61036;53.224;6.554;2023-03-31T05:59:22;99659.66;;;10.44;100.00
72896;BME280;61036;53.224;6.554;2023-03-31T06:01:48;99660.66;;;10.52;100.00
72896;BME280;61036;53.224;6.554;2023-03-31T06:04:14;99663.63;;;10.49;100.00
72896;BME280;61036;53.224;6.554;2023-03-31T06:06:39;99654.25;;;10.63;100.00
72896;BME280;61036;53.224;6.554;2023-03-31T06:09:07;99652.00;;;10.49;100.00
72896;BME280;61036;53.224;6.554;2023-03-31T06:11:32;99646.47;;;10.60;100.00
72896;BME280;61036;53.224;6.554;2023-03-31T06:13:58;99639.50;;;10.67;100.00
72896;BME280;61036;53.224;6.554;2023-03-31T06:16:24;99634.84;;;10.60;100.00
72896;BME280;61036;53.224;6.554;2023-03-31T06:18:49;99633.00;;;10.60;100.00
72896;BME280;61036;53.224;6.554;2023-03-31T06:21:18;99625.06;;;10.49;100.00
72896;BME280;61036;53.224;6.554;2023-03-31T06:23:45;99623.22;;;10.40;100.00
72896;BME280;61036;53.224;6.554;2023-03-31T06:26:13;99619.94;;;10.56;100.00
72896;BME280;61036;53.224;6.554;2023-03-31T06:28:39;99614.41;;;10.57;100.00
72896;BME280;61036;53.224;6.554;2023-03-31T06:31:06;99616.28;;;10.47;100.00
72896;BME280;61036;53.224;6.554;2023-03-31T06:33:34;99607.78;;;10.42;100.00
72896;BME280;61036;53.224;6.554;2023-03-31T06:36:00;99600.41;;;10.34;100.00
72896;BME280;61036;53.224;6.554;2023-03-31T06:38:28;99597.66;;;10.63;100.00
72896;BME280;61036;53.224;6.554;2023-03-31T06:40:54;99593.00;;;10.46;100.00
72896;BME280;61036;53.224;6.554;2023-03-31T06:43:19;99594.56;;;10.48;100.00
72896;BME280;61036;53.224;6.554;2023-03-31T06:45:46;99591.53;;;10.61;100.00
72896;BME280;61036;53.224;6.554;2023-03-31T06:48:12;99593.94;;;10.64;100.00
72896;BME280;61036;53.224;6.554;2023-03-31T06:50:39;99587.88;;;10.52;100.00
72896;BME280;61036;53.224;6.554;2023-03-31T06:53:07;99583.50;;;10.51;100.00
72896;BME280;61036;53.224;6.554;2023-03-31T06:55:33;99575.41;;;10.51;100.00
72896;BME280;61036;53.224;6.554;2023-03-31T06:57:59;99563.16;;;10.67;100.00
72896;BME280;61036;53.224;6.554;2023-03-31T07:00:25;99568.91;;;10.35;100.00
72896;BME280;61036;53.224;6.554;2023-03-31T07:02:52;99565.50;;;10.42;100.00
72896;BME280;61036;53.224;6.554;2023-03-31T07:05:18;99564.19;;;10.46;100.00
72896;BME280;61036;53.224;6.554;2023-03-31T07:07:44;99551.69;;;10.55;100.00
72896;BME280;61036;53.224;6.554;2023-03-31T07:10:10;99554.94;;;10.59;100.00
72896;BME280;61036;53.224;6.554;2023-03-31T07:12:36;99556.72;;;10.30;100.00
72896;BME280;61036;53.224;6.554;2023-03-31T07:15:02;99549.59;;;10.49;100.00
72896;BME280;61036;53.224;6.554;2023-03-31T07:17:28;99543.19;;;10.60;100.00
72896;BME280;61036;53.224;6.554;2023-03-31T07:19:53;99547.31;;;10.54;100.00
72896;BME280;61036;53.224;6.554;2023-03-31T07:22:19;99546.94;;;10.29;100.00
72896;BME280;61036;53.224;6.554;2023-03-31T07:24:48;99536.06;;;10.68;100.00
72896;BME280;61036;53.224;6.554;2023-03-31T07:27:13;99534.81;;;10.63;100.00
72896;BME280;61036;53.224;6.554;2023-03-31T07:29:39;99524.59;;;10.57;100.00
72896;BME280;61036;53.224;6.554;2023-03-31T07:32:05;99517.03;;;10.70;100.00
72896;BME280;61036;53.224;6.554;2023-03-31T07:34:30;99526.03;;;10.51;100.00
72896;BME280;61036;53.224;6.554;2023-03-31T07:36:56;99514.97;;;10.54;100.00
72896;BME280;61036;53.224;6.554;2023-03-31T07:39:22;99521.44;;;10.61;100.00
72896;BME280;61036;53.224;6.554;2023-03-31T07:41:47;99518.16;;;10.67;100.00
72896;BME280;61036;53.224;6.554;2023-03-31T07:44:13;99507.38;;;10.77;100.00
72896;BME280;61036;53.224;6.554;2023-03-31T07:46:40;99499.81;;;10.81;100.00
72896;BME280;61036;53.224;6.554;2023-03-31T07:49:05;99499.59;;;10.64;100.00
72896;BME280;61036;53.224;6.554;2023-03-31T07:51:32;99500.00;;;10.69;100.00
72896;BME280;61036;53.224;6.554;2023-03-31T07:53:58;99502.81;;;10.78;100.00
72896;BME280;61036;53.224;6.554;2023-03-31T07:56:24;99499.56;;;10.74;100.00
72896;BME280;61036;53.224;6.554;2023-03-31T07:58:50;99493.75;;;10.96;100.00
72896;BME280;61036;53.224;6.554;2023-03-31T08:01:18;99487.63;;;11.04;100.00
72896;BME280;61036;53.224;6.554;2023-03-31T08:03:46;99487.63;;;11.04;100.00
72896;BME280;61036;53.224;6.554;2023-03-31T08:06:17;99486.16;;;10.82;100.00
72896;BME280;61036;53.224;6.554;2023-03-31T08:08:44;99476.81;;;10.76;100.00
72896;BME280;61036;53.224;6.554;2023-03-31T08:11:09;99478.63;;;10.86;100.00
72896;BME280;61036;53.224;6.554;2023-03-31T08:13:35;99477.00;;;10.75;100.00
72896;BME280;61036;53.224;6.554;2023-03-31T08:16:01;99470.00;;;10.82;100.00
72896;BME280;61036;53.224;6.554;2023-03-31T08:18:27;99466.81;;;10.69;100.00
72896;BME280;61036;53.224;6.554;2023-03-31T08:20:53;99460.44;;;10.88;100.00
72896;BME280;61036;53.224;6.554;2023-03-31T08:23:18;99459.66;;;10.78;100.00
72896;BME280;61036;53.224;6.554;2023-03-31T08:25:44;99455.81;;;10.80;100.00
72896;BME280;61036;53.224;6.554;2023-03-31T08:28:10;99452.13;;;10.81;100.00
72896;BME280;61036;53.224;6.554;2023-03-31T08:30:39;99460.34;;;11.07;100.00
72896;BME280;61036;53.224;6.554;2023-03-31T08:33:06;99454.34;;;10.86;100.00
72896;BME280;61036;53.224;6.554;2023-03-31T08:35:35;99439.03;;;10.86;100.00
72896;BME280;61036;53.224;6.554;2023-03-31T08:38:01;99435.72;;;10.65;100.00
72896;BME280;61036;53.224;6.554;2023-03-31T08:40:28;99440.03;;;10.85;100.00
72896;BME280;61036;53.224;6.554;2023-03-31T08:43:00;99433.66;;;10.86;100.00
72896;BME280;61036;53.224;6.554;2023-03-31T08:45:34;99431.44;;;10.99;100.00
72896;BME280;61036;53.224;6.554;2023-03-31T08:48:18;99431.34;;;11.09;100.00
72896;BME280;61036;53.224;6.554;2023-03-31T08:50:51;99425.66;;;11.12;100.00
72896;BME280;61036;53.224;6.554;2023-03-31T08:53:27;99434.88;;;11.10;100.00
72896;BME280;61036;53.224;6.554;2023-03-31T08:55:55;99428.41;;;11.03;100.00
72896;BME280;61036;53.224;6.554;2023-03-31T08:58:39;99429.59;;;11.18;100.00
72896;BME280;61036;53.224;6.554;2023-03-31T09:01:26;99411.72;;;11.17;100.00
72896;BME280;61036;53.224;6.554;2023-03-31T09:15:28;99410.78;;;11.08;100.00
72896;BME280;61036;53.224;6.554;2023-03-31T09:18:02;99409.53;;;11.03;100.00
72896;BME280;61036;53.224;6.554;2023-03-31T09:20:34;99413.41;;;11.18;100.00
72896;BME280;61036;53.224;6.554;2023-03-31T09:23:27;99412.38;;;11.37;100.00
72896;BME280;61036;53.224;6.554;2023-03-31T09:25:57;99405.53;;;11.25;100.00
72896;BME280;61036;53.224;6.554;2023-03-31T09:28:30;99405.53;;;11.25;100.00
72896;BME280;61036;53.224;6.554;2023-03-31T09:30:59;99400.13;;;11.25;100.00
72896;BME280;61036;53.224;6.554;2023-03-31T09:33:29;99396.66;;;11.32;100.00
72896;BME280;61036;53.224;6.554;2023-03-31T09:36:07;99400.38;;;11.31;100.00
72896;BME280;61036;53.224;6.554;2023-03-31T09:38:39;99400.22;;;11.33;100.00
72896;BME280;61036;53.224;6.554;2023-03-31T09:41:07;99394.56;;;11.44;100.00
72896;BME280;61036;53.224;6.554;2023-03-31T09:43:33;99396.72;;;11.58;100.00
72896;BME280;61036;53.224;6.554;2023-03-31T09:46:00;99402.56;;;11.72;100.00
72896;BME280;61036;53.224;6.554;2023-03-31T09:48:29;99392.53;;;11.64;100.00
72896;BME280;61036;53.224;6.554;2023-03-31T09:51:04;99382.63;;;11.73;100.00
72896;BME280;61036;53.224;6.554;2023-03-31T09:53:50;99390.38;;;11.67;100.00
72896;BME280;61036;53.224;6.554;2023-03-31T09:56:32;99387.22;;;11.98;100.00
72896;BME280;61036;53.224;6.554;2023-03-31T09:59:02;99383.41;;;11.83;100.00
72896;BME280;61036;53.224;6.554;2023-03-31T10:01:28;99379.59;;;11.94;100.00
72896;BME280;61036;53.224;6.554;2023-03-31T10:03:55;99377.53;;;12.13;100.00
72896;BME280;61036;53.224;6.554;2023-03-31T10:06:24;99374.84;;;12.56;100.00
72896;BME280;61036;53.224;6.554;2023-03-31T10:08:54;99377.16;;;12.51;100.00
72896;BME280;61036;53.224;6.554;2023-03-31T10:11:22;99379.09;;;12.67;100.00
72896;BME280;61036;53.224;6.554;2023-03-31T10:13:52;99365.38;;;12.60;100.00
72896;BME280;61036;53.224;6.554;2023-03-31T10:16:31;99362.19;;;12.65;100.00
72896;BME280;61036;53.224;6.554;2023-03-31T10:19:33;99367.03;;;12.53;100.00
72896;BME280;61036;53.224;6.554;2023-03-31T10:22:02;99365.78;;;12.31;100.00
72896;BME280;61036;53.224;6.554;2023-03-31T10:24:37;99364.84;;;12.56;100.00
72896;BME280;61036;53.224;6.554;2023-03-31T10:27:05;99365.94;;;12.29;100.00
72896;BME280;61036;53.224;6.554;2023-03-31T10:29:32;99363.13;;;12.47;100.00
72896;BME280;61036;53.224;6.554;2023-03-31T10:32:20;99364.13;;;12.38;100.00
72896;BME280;61036;53.224;6.554;2023-03-31T10:34:47;99364.81;;;12.06;100.00
72896;BME280;61036;53.224;6.554;2023-03-31T10:37:18;99368.16;;;12.00;100.00
72896;BME280;61036;53.224;6.554;2023-03-31T10:39:47;99365.09;;;11.95;100.00
72896;BME280;61036;53.224;6.554;2023-03-31T10:42:21;99365.78;;;11.79;100.00
72896;BME280;61036;53.224;6.554;2023-03-31T10:44:47;99363.47;;;11.84;100.00
72896;BME280;61036;53.224;6.554;2023-03-31T10:49:40;99368.47;;;11.97;100.00
72896;BME280;61036;53.224;6.554;2023-03-31T10:52:20;99364.78;;;12.32;100.00
72896;BME280;61036;53.224;6.554;2023-03-31T10:54:58;99366.94;;;12.71;100.00
72896;BME280;61036;53.224;6.554;2023-03-31T10:57:49;99357.75;;;12.13;100.00
72896;BME280;61036;53.224;6.554;2023-03-31T11:08:28;99359.44;;;12.56;100.00
72896;BME280;61036;53.224;6.554;2023-03-31T11:11:17;99354.63;;;12.76;100.00
72896;BME280;61036;53.224;6.554;2023-03-31T11:13:57;99355.28;;;12.70;100.00
72896;BME280;61036;53.224;6.554;2023-03-31T11:16:55;99349.09;;;13.19;100.00
72896;BME280;61036;53.224;6.554;2023-03-31T11:20:15;99338.63;;;13.48;100.00
72896;BME280;61036;53.224;6.554;2023-03-31T11:28:36;99327.56;;;13.75;100.00
72896;BME280;61036;53.224;6.554;2023-03-31T11:33:46;99322.03;;;13.52;100.00
72896;BME280;61036;53.224;6.554;2023-03-31T11:37:06;99324.69;;;13.84;100.00
72896;BME280;61036;53.224;6.554;2023-03-31T11:42:26;99307.66;;;14.54;100.00
72896;BME280;61036;53.224;6.554;2023-03-31T11:45:02;99302.34;;;14.30;100.00
72896;BME280;61036;53.224;6.554;2023-03-31T11:47:31;99309.47;;;14.62;100.00
72896;BME280;61036;53.224;6.554;2023-03-31T11:50:03;99301.88;;;14.18;100.00
72896;BME280;61036;53.224;6.554;2023-03-31T11:52:34;99302.94;;;14.09;100.00
72896;BME280;61036;53.224;6.554;2023-03-31T11:58:05;99286.91;;;14.61;100.00
72896;BME280;61036;53.224;6.554;2023-03-31T12:00:52;99297.00;;;14.45;100.00
72896;BME280;61036;53.224;6.554;2023-03-31T12:03:26;99297.19;;;14.04;100.00
72896;BME280;61036;53.224;6.554;2023-03-31T12:06:02;99281.97;;;13.94;100.00
72896;BME280;61036;53.224;6.554;2023-03-31T12:08:37;99297.31;;;13.22;100.00
72896;BME280;61036;53.224;6.554;2023-03-31T12:11:08;99309.50;;;13.50;100.00
72896;BME280;61036;53.224;6.554;2023-03-31T12:13:50;99315.41;;;13.13;100.00
72896;BME280;61036;53.224;6.554;2023-03-31T12:16:21;99319.13;;;12.88;100.00
72896;BME280;61036;53.224;6.554;2023-03-31T12:19:01;99315.91;;;12.76;100.00
72896;BME280;61036;53.224;6.554;2023-03-31T12:21:31;99314.69;;;12.78;100.00
72896;BME280;61036;53.224;6.554;2023-03-31T12:23:57;99310.66;;;12.82;100.00
72896;BME280;61036;53.224;6.554;2023-03-31T12:29:01;99299.00;;;12.74;100.00
72896;BME280;61036;53.224;6.554;2023-03-31T12:31:29;99299.00;;;12.74;100.00
72896;BME280;61036;53.224;6.554;2023-03-31T12:34:11;99290.88;;;12.90;100.00
72896;BME280;61036;53.224;6.554;2023-03-31T12:42:47;99295.84;;;13.36;100.00
72896;BME280;61036;53.224;6.554;2023-03-31T12:53:07;99288.09;;;13.88;100.00
72896;BME280;61036;53.224;6.554;2023-03-31T12:55:49;99272.19;;;14.56;100.00
72896;BME280;61036;53.224;6.554;2023-03-31T13:03:52;99261.19;;;14.26;100.00
72896;BME280;61036;53.224;6.554;2023-03-31T13:11:39;99249.47;;;14.26;100.00
72896;BME280;61036;53.224;6.554;2023-03-31T13:14:34;99250.75;;;14.38;100.00
72896;BME280;61036;53.224;6.554;2023-03-31T13:17:22;99246.63;;;14.19;100.00
72896;BME280;61036;53.224;6.554;2023-03-31T13:19:48;99240.91;;;14.14;100.00
72896;BME280;61036;53.224;6.554;2023-03-31T13:22:32;99235.94;;;14.49;100.00
72896;BME280;61036;53.224;6.554;2023-03-31T13:27:57;99225.78;;;14.97;100.00
72896;BME280;61036;53.224;6.554;2023-03-31T13:39:04;99220.28;;;14.36;100.00
72896;BME280;61036;53.224;6.554;2023-03-31T13:41:39;99218.09;;;14.31;100.00
72896;BME280;61036;53.224;6.554;2023-03-31T13:55:23;99237.94;;;13.20;100.00
72896;BME280;61036;53.224;6.554;2023-03-31T14:03:36;99263.34;;;13.03;100.00
72896;BME280;61036;53.224;6.554;2023-03-31T14:08:58;99259.44;;;12.89;100.00
72896;BME280;61036;53.224;6.554;2023-03-31T14:11:28;99246.91;;;13.13;100.00
72896;BME280;61036;53.224;6.554;2023-03-31T14:14:12;99248.50;;;13.79;100.00
72896;BME280;61036;53.224;6.554;2023-03-31T14:16:51;99240.59;;;13.61;100.00
72896;BME280;61036;53.224;6.554;2023-03-31T14:25:19;99230.56;;;13.78;100.00
72896;BME280;61036;53.224;6.554;2023-03-31T14:27:57;99219.47;;;13.96;100.00
72896;BME280;61036;53.224;6.554;2023-03-31T14:30:36;99221.25;;;13.72;100.00
72896;BME280;61036;53.224;6.554;2023-03-31T14:33:46;99222.59;;;13.77;100.00
72896;BME280;61036;53.224;6.554;2023-03-31T14:38:46;99213.72;;;13.43;100.00
72896;BME280;61036;53.224;6.554;2023-03-31T14:41:17;99209.00;;;13.45;100.00
72896;BME280;61036;53.224;6.554;2023-03-31T14:43:55;99205.78;;;13.42;100.00
72896;BME280;61036;53.224;6.554;2023-03-31T14:46:21;99205.41;;;13.53;100.00
72896;BME280;61036;53.224;6.554;2023-03-31T14:48:49;99204.94;;;13.89;100.00
72896;BME280;61036;53.224;6.554;2023-03-31T14:51:25;99200.50;;;14.27;100.00
72896;BME280;61036;53.224;6.554;2023-03-31T14:53:58;99195.47;;;14.47;100.00
72896;BME280;61036;53.224;6.554;2023-03-31T14:56:39;99187.25;;;14.01;100.00
72896;BME280;61036;53.224;6.554;2023-03-31T14:59:06;99191.13;;;13.67;100.00
72896;BME280;61036;53.224;6.554;2023-03-31T15:01:34;99192.56;;;13.86;100.00
72896;BME280;61036;53.224;6.554;2023-03-31T15:04:11;99191.03;;;13.53;100.00
72896;BME280;61036;53.224;6.554;2023-03-31T15:06:39;99186.78;;;13.89;100.00
72896;BME280;61036;53.224;6.554;2023-03-31T15:09:06;99188.66;;;13.58;100.00
72896;BME280;61036;53.224;6.554;2023-03-31T15:11:37;99187.69;;;13.42;100.00
72896;BME280;61036;53.224;6.554;2023-03-31T15:14:03;99190.25;;;13.36;100.00
72896;BME280;61036;53.224;6.554;2023-03-31T15:18:58;99183.22;;;13.58;100.00
72896;BME280;61036;53.224;6.554;2023-03-31T15:21:26;99185.00;;;13.26;100.00
72896;BME280;61036;53.224;6.554;2023-03-31T15:23:56;99180.44;;;13.74;100.00
72896;BME280;61036;53.224;6.554;2023-03-31T15:26:35;99183.13;;;13.82;100.00
72896;BME280;61036;53.224;6.554;2023-03-31T15:29:08;99183.03;;;13.59;100.00
72896;BME280;61036;53.224;6.554;2023-03-31T15:31:37;99178.22;;;13.05;100.00